Time;durP1;ratioP1;P1;durP2;ratioP2;P2;SDS_P1;SDS_P2;PMS_P1;PMS_P2;Temp;Humidity;BMP_temperature;BMP_pressure;BME280_temperature;BME280_humidity;BME280_pressure;Samples;Min_cycle;Max_cycle;Signal;HPM_P1;HPM_P2
2023/10/26 00:01:52;;;;;;;4.53;2.13;;;;;11.70;95155.00;;;;5051564;28;20599;-69
2023/10/26 00:04:43;;;;;;;4.63;2.23;;;;;11.20;95151.00;;;;5048728;28;20204;-69
2023/10/26 00:07:32;;;;;;;4.40;2.10;;;;;11.50;95157.00;;;;5052221;28;20203;-69
2023/10/26 00:10:21;;;;;;;6.77;3.37;;;;;12.00;95156.00;;;;5050954;28;20592;-70
2023/10/26 00:13:10;;;;;;;4.20;1.93;;;;;12.00;95154.00;;;;5051075;28;20196;-70
2023/10/26 00:15:59;;;;;;;4.37;2.13;;;;;11.80;95152.00;;;;5045972;28;20658;-69
2023/10/26 00:18:48;;;;;;;4.13;2.00;;;;;11.60;95163.00;;;;5049925;28;20591;-70
2023/10/26 00:21:39;;;;;;;3.27;1.73;;;;;11.70;95164.00;;;;5050348;28;20203;-69
2023/10/26 00:24:28;;;;;;;6.47;3.33;;;;;11.40;95158.00;;;;5052444;28;20216;-69
2023/10/26 00:27:17;;;;;;;6.63;3.07;;;;;11.00;95163.00;;;;5049394;28;20678;-69
2023/10/26 00:30:08;;;;;;;4.80;2.17;;;;;11.70;95165.00;;;;5055644;28;20228;-70
2023/10/26 00:32:57;;;;;;;3.93;2.03;;;;;11.60;95158.00;;;;5051356;28;20202;-70
2023/10/26 00:35:46;;;;;;;1.50;0.80;;;;;11.60;95175.00;;;;5047688;28;20211;-69
2023/10/26 00:38:36;;;;;;;2.00;1.07;;;;;11.50;95164.00;;;;5046092;28;20227;-70
2023/10/26 00:41:25;;;;;;;7.43;3.60;;;;;11.60;95182.00;;;;5053464;28;20208;-70
2023/10/26 00:44:14;;;;;;;3.83;1.90;;;;;11.50;95183.00;;;;5052255;28;20231;-70
2023/10/26 00:47:03;;;;;;;4.73;2.30;;;;;11.80;95186.00;;;;5051368;28;20200;-70
2023/10/26 00:49:52;;;;;;;6.40;3.03;;;;;11.40;95183.00;;;;5045859;28;20232;-69
2023/10/26 00:52:41;;;;;;;4.57;2.10;;;;;11.20;95183.00;;;;5047535;28;20223;-69
2023/10/26 00:55:32;;;;;;;5.87;3.03;;;;;11.10;95182.00;;;;5054090;28;20204;-69
2023/10/26 00:58:21;;;;;;;10.97;4.97;;;;;11.70;95196.00;;;;5044886;28;20211;-69
2023/10/26 01:01:11;;;;;;;6.10;2.73;;;;;11.90;95203.00;;;;5048646;28;20280;-69
2023/10/26 01:04:01;;;;;;;4.73;2.20;;;;;12.10;95188.00;;;;5047916;28;20271;-70
2023/10/26 01:06:50;;;;;;;4.60;2.17;;;;;11.90;95196.00;;;;5058998;28;20207;-70
2023/10/26 01:09:39;;;;;;;4.40;2.03;;;;;11.00;95188.00;;;;5054916;28;20716;-69
2023/10/26 01:12:30;;;;;;;6.73;3.13;;;;;11.60;95186.00;;;;5058711;28;20207;-69
2023/10/26 01:15:19;;;;;;;7.67;3.53;;;;;12.00;95179.00;;;;5053070;28;20209;-69
2023/10/26 01:18:08;;;;;;;4.83;2.27;;;;;11.90;95183.00;;;;5054240;28;20580;-69
2023/10/26 01:20:57;;;;;;;4.97;2.17;;;;;11.70;95172.00;;;;5053700;28;20196;-69
2023/10/26 01:23:48;;;;;;;4.43;1.93;;;;;11.60;95167.00;;;;5051210;28;20228;-69
2023/10/26 01:26:37;;;;;;;5.10;2.37;;;;;11.70;95168.00;;;;5053198;28;20685;-70
2023/10/26 01:29:26;;;;;;;7.07;3.30;;;;;11.90;95173.00;;;;5054747;28;20232;-70
2023/10/26 01:32:15;;;;;;;3.43;1.63;;;;;11.60;95156.00;;;;5052791;28;20203;-69
2023/10/26 01:35:04;;;;;;;3.37;1.50;;;;;11.60;95158.00;;;;5056010;28;20196;-69
2023/10/26 01:37:53;;;;;;;4.13;2.00;;;;;11.60;95165.00;;;;5054878;28;20204;-69
2023/10/26 01:40:43;;;;;;;4.10;1.97;;;;;11.30;95171.00;;;;5054405;28;20596;-69
2023/10/26 01:43:32;;;;;;;6.23;3.03;;;;;11.60;95168.00;;;;5052767;28;20816;-70
2023/10/26 01:46:21;;;;;;;9.37;4.10;;;;;11.50;95163.00;;;;5056078;28;20197;-69
2023/10/26 01:49:10;;;;;;;4.23;1.97;;;;;11.90;95153.00;;;;5054475;28;20228;-69
2023/10/26 01:52:00;;;;;;;4.80;2.30;;;;;12.10;95147.00;;;;5049829;28;20200;-70
2023/10/26 01:54:49;;;;;;;4.07;1.90;;;;;11.90;95151.00;;;;5054402;28;20192;-69
2023/10/26 01:57:40;;;;;;;5.10;2.13;;;;;12.10;95152.00;;;;5053280;28;20219;-69
2023/10/26 02:00:29;;;;;;;7.63;3.50;;;;;12.10;95170.00;;;;5051193;28;20236;-69
2023/10/26 02:03:18;;;;;;;7.50;3.40;;;;;11.70;95169.00;;;;5051668;28;20232;-70
2023/10/26 02:06:09;;;;;;;4.80;2.40;;;;;11.90;95159.00;;;;5053456;28;20685;-70
2023/10/26 02:08:58;;;;;;;5.10;2.57;;;;;11.80;95153.00;;;;5048140;28;20309;-69
2023/10/26 02:11:47;;;;;;;4.57;2.07;;;;;11.70;95160.00;;;;5049009;28;20204;-70
2023/10/26 02:14:37;;;;;;;4.70;2.10;;;;;11.90;95155.00;;;;5053542;28;20211;-70
2023/10/26 02:17:26;;;;;;;7.13;3.23;;;;;12.10;95160.00;;;;5055668;28;20223;-70
2023/10/26 02:20:16;;;;;;;5.10;2.30;;;;;11.90;95161.00;;;;5047595;28;20231;-69
2023/10/26 02:23:05;;;;;;;4.13;1.90;;;;;11.40;95158.00;;;;5050431;28;20205;-69
2023/10/26 02:25:54;;;;;;;5.50;2.40;;;;;11.80;95158.00;;;;5053068;28;20276;-70
2023/10/26 02:28:42;;;;;;;3.80;1.73;;;;;11.90;95154.00;;;;5051118;28;20196;-70
2023/10/26 02:31:33;;;;;;;5.67;2.83;;;;;11.80;95164.00;;;;5054255;28;20205;-70
2023/10/26 02:34:22;;;;;;;8.80;3.83;;;;;11.80;95165.00;;;;5048161;28;20193;-69
2023/10/26 02:37:11;;;;;;;5.70;2.30;;;;;12.00;95159.00;;;;5050106;28;20681;-70
2023/10/26 02:40:00;;;;;;;4.60;2.13;;;;;12.10;95158.00;;;;5053714;28;20220;-69
2023/10/26 02:42:49;;;;;;;4.57;2.10;;;;;11.40;95159.00;;;;5054443;28;20211;-69
2023/10/26 02:45:39;;;;;;;6.37;2.70;;;;;11.70;95166.00;;;;5055684;28;20207;-69
2023/10/26 02:48:29;;;;;;;11.20;4.90;;;;;12.10;95164.00;;;;5047617;28;20224;-69
2023/10/26 02:51:18;;;;;;;6.50;2.93;;;;;12.00;95175.00;;;;5050338;28;20201;-69
2023/10/26 02:54:07;;;;;;;5.00;2.30;;;;;12.10;95181.00;;;;5053608;28;20204;-69
2023/10/26 02:56:56;;;;;;;5.37;2.40;;;;;12.10;95183.00;;;;5051711;28;20196;-69
2023/10/26 02:59:45;;;;;;;4.57;1.93;;;;;11.90;95180.00;;;;5049827;28;20239;-69
2023/10/26 03:02:34;;;;;;;4.90;2.20;;;;;11.60;95194.00;;;;5052468;28;20201;-69
2023/10/26 03:05:25;;;;;;;8.23;3.67;;;;;11.60;95183.00;;;;5052294;28;20228;-69
2023/10/26 03:08:14;;;;;;;6.53;2.83;;;;;11.50;95186.00;;;;5050207;28;20200;-70
2023/10/26 03:11:03;;;;;;;6.13;2.60;;;;;11.30;95173.00;;;;5051888;28;20204;-69
2023/10/26 03:13:52;;;;;;;4.50;2.13;;;;;11.40;95180.00;;;;5051141;28;20577;-69
2023/10/26 03:16:41;;;;;;;4.53;2.10;;;;;11.70;95180.00;;;;5052848;28;20220;-69
2023/10/26 03:19:30;;;;;;;7.20;3.40;;;;;11.60;95185.00;;;;5050623;28;20228;-69
2023/10/26 03:22:21;;;;;;;7.17;3.03;;;;;11.00;95184.00;;;;5049892;28;20666;-69
2023/10/26 03:25:13;;;;;;;6.13;2.77;;;;;10.60;95189.00;;;;5053703;28;20209;-68
2023/10/26 03:28:02;;;;;;;2.80;1.33;;;;;10.80;95193.00;;;;5051259;28;20197;-69
2023/10/26 03:30:51;;;;;;;4.50;2.00;;;;;11.30;95201.00;;;;5047928;28;20205;-69
2023/10/26 03:33:40;;;;;;;4.67;2.00;;;;;11.50;95204.00;;;;5047928;28;20239;-69
2023/10/26 03:36:29;;;;;;;7.27;3.10;;;;;11.70;95206.00;;;;5051782;28;20205;-69
2023/10/26 03:39:20;;;;;;;3.90;1.73;;;;;11.90;95193.00;;;;5051107;28;20258;-69
2023/10/26 03:42:09;;;;;;;5.37;2.20;;;;;12.00;95197.00;;;;5044898;28;20196;-69
2023/10/26 03:44:58;;;;;;;5.23;2.37;;;;;12.20;95205.00;;;;5047563;28;20251;-70
2023/10/26 03:47:47;;;;;;;4.47;1.93;;;;;12.20;95206.00;;;;5044752;28;20197;-69
2023/10/26 03:50:37;;;;;;;4.57;2.07;;;;;12.20;95205.00;;;;5052839;28;20677;-69
2023/10/26 03:53:26;;;;;;;9.13;3.77;;;;;11.80;95203.00;;;;5052343;28;20588;-69
2023/10/26 03:56:17;;;;;;;6.10;2.70;;;;;11.50;95185.00;;;;5047828;28;20193;-69
2023/10/26 03:59:06;;;;;;;18.33;6.20;;;;;11.40;95189.00;;;;5078217;22;20769;-72
2023/10/26 04:01:55;;;;;;;6.50;2.53;;;;;11.70;95195.00;;;;5063531;28;20211;-72
2023/10/26 04:04:44;;;;;;;7.63;2.73;;;;;12.00;95187.00;;;;5060697;28;20224;-72
2023/10/26 04:07:33;;;;;;;8.53;3.23;;;;;12.00;95183.00;;;;5064035;28;20215;-72
2023/10/26 04:10:22;;;;;;;8.77;3.43;;;;;11.30;95182.00;;;;5063197;28;20219;-72
2023/10/26 04:13:12;;;;;;;6.20;2.30;;;;;11.20;95176.00;;;;5066136;28;20218;-72
2023/10/26 04:16:02;;;;;;;8.23;3.07;;;;;11.40;95164.00;;;;5061603;28;20208;-72
2023/10/26 04:18:51;;;;;;;6.80;2.63;;;;;11.60;95186.00;;;;5067778;28;20203;-73
2023/10/26 04:21:40;;;;;;;5.97;2.23;;;;;11.60;95187.00;;;;5063168;28;20203;-72
2023/10/26 04:24:29;;;;;;;12.40;4.70;;;;;10.80;95180.00;;;;5064709;28;20223;-71
2023/10/26 04:27:18;;;;;;;7.87;3.63;;;;;10.90;95187.00;;;;5063864;28;20196;-72
2023/10/26 04:30:09;;;;;;;6.90;2.53;;;;;11.10;95180.00;;;;5059199;28;20231;-71
2023/10/26 04:32:58;;;;;;;5.73;2.13;;;;;11.30;95184.00;;;;5063048;28;20249;-72
2023/10/26 04:35:49;;;;;;;5.37;2.10;;;;;11.60;95192.00;;;;5067611;28;20200;-70
2023/10/26 04:38:39;;;;;;;6.97;2.60;;;;;11.80;95198.00;;;;5067184;28;20196;-71
2023/10/26 04:41:29;;;;;;;11.20;4.17;;;;;12.30;95201.00;;;;5065563;28;20214;-71
2023/10/26 04:44:18;;;;;;;7.27;2.70;;;;;12.20;95193.00;;;;5060779;28;20204;-71
2023/10/26 04:47:09;;;;;;;6.10;2.30;;;;;12.10;95193.00;;;;5063463;28;20680;-71
2023/10/26 04:49:58;;;;;;;12.40;4.50;;;;;12.10;95198.00;;;;5067154;28;20765;-72
2023/10/26 04:52:48;;;;;;;6.33;2.33;;;;;11.90;95204.00;;;;5067656;28;20203;-71
2023/10/26 04:55:37;;;;;;;2.70;1.13;;;;;11.90;95192.00;;;;5066132;28;20204;-71
2023/10/26 04:58:26;;;;;;;123.00;114.60;;;;;11.40;95181.00;;;;5062674;28;20410;-72
2023/10/26 05:01:15;;;;;;;28.27;26.17;;;;;11.80;95204.00;;;;5062396;28;20402;-72
2023/10/26 05:04:06;;;;;;;4.37;1.67;;;;;12.30;95213.00;;;;5066266;28;20794;-71
2023/10/26 05:06:55;;;;;;;5.50;2.10;;;;;12.20;95201.00;;;;5065387;28;20211;-72
2023/10/26 05:09:44;;;;;;;2.57;1.13;;;;;12.20;95207.00;;;;5061574;28;20629;-72
2023/10/26 05:12:33;;;;;;;6.80;2.77;;;;;12.30;95214.00;;;;5061851;28;20728;-71
2023/10/26 05:15:23;;;;;;;9.57;3.50;;;;;12.20;95227.00;;;;5062779;28;20192;-71
2023/10/26 05:18:12;;;;;;;5.33;2.13;;;;;12.20;95241.00;;;;5064947;28;20196;-71
2023/10/26 05:21:03;;;;;;;6.43;2.57;;;;;12.20;95234.00;;;;5059431;28;20303;-71
2023/10/26 05:23:52;;;;;;;8.60;3.40;;;;;12.30;95238.00;;;;5067058;28;20215;-72
2023/10/26 05:26:41;;;;;;;6.07;2.40;;;;;12.40;95241.00;;;;5056299;28;20623;-71
2023/10/26 05:29:30;;;;;;;9.23;3.87;;;;;12.40;95240.00;;;;5060969;28;20747;-72
2023/10/26 05:32:20;;;;;;;5.57;2.33;;;;;12.40;95247.00;;;;5060124;28;20208;-71
2023/10/26 05:35:09;;;;;;;5.63;2.50;;;;;12.40;95235.00;;;;5062582;28;20219;-71
2023/10/26 05:37:59;;;;;;;5.57;2.37;;;;;12.30;95230.00;;;;5065085;28;20231;-72
2023/10/26 05:40:52;;;;;;;6.50;2.73;;;;;12.30;95226.00;;;;5063431;28;20223;-72
2023/10/26 05:43:41;;;;;;;4.33;1.90;;;;;12.30;95226.00;;;;5062948;28;20211;-72
2023/10/26 05:46:30;;;;;;;13.33;5.60;;;;;12.10;95235.00;;;;5058120;28;20227;-72
2023/10/26 05:49:19;;;;;;;6.43;2.70;;;;;11.50;95225.00;;;;5063514;28;20224;-72
2023/10/26 05:52:08;;;;;;;4.60;2.03;;;;;11.50;95232.00;;;;5064226;28;20195;-72
2023/10/26 05:54:59;;;;;;;5.47;2.40;;;;;11.60;95244.00;;;;5059683;28;20204;-72
2023/10/26 05:57:48;;;;;;;4.97;2.13;;;;;11.30;95255.00;;;;5067621;28;20272;-72
2023/10/26 06:00:38;;;;;;;10.77;4.77;;;;;10.80;95263.00;;;;5067184;28;20244;-71
2023/10/26 06:03:27;;;;;;;6.70;2.97;;;;;11.00;95253.00;;;;5059586;28;20262;-72
2023/10/26 06:06:16;;;;;;;6.03;2.60;;;;;11.20;95261.00;;;;5059745;28;20224;-72
2023/10/26 06:09:05;;;;;;;4.37;2.07;;;;;11.60;95260.00;;;;5068455;28;20214;-72
2023/10/26 06:11:56;;;;;;;4.30;2.07;;;;;11.90;95265.00;;;;5063065;28;20662;-72
2023/10/26 06:14:45;;;;;;;4.57;2.03;;;;;11.80;95260.00;;;;5068693;28;20207;-73
2023/10/26 06:17:34;;;;;;;7.87;3.70;;;;;11.70;95264.00;;;;5065484;28;20218;-72
2023/10/26 06:20:27;;;;;;;7.97;3.43;;;;;11.80;95275.00;;;;5060748;28;20235;-72
2023/10/26 06:23:16;;;;;;;2.07;1.00;;;;;12.10;95269.00;;;;5065226;28;20214;-73
2023/10/26 06:26:06;;;;;;;6.43;2.80;;;;;11.90;95275.00;;;;5068476;28;20220;-72
2023/10/26 06:28:56;;;;;;;5.53;2.40;;;;;11.80;95273.00;;;;5064697;28;20200;-73
2023/10/26 06:31:46;;;;;;;4.57;2.10;;;;;11.30;95278.00;;;;5065711;28;20566;-72
2023/10/26 06:34:35;;;;;;;7.43;3.63;;;;;11.20;95287.00;;;;5066294;28;20204;-73
2023/10/26 06:37:24;;;;;;;7.97;3.60;;;;;11.60;95279.00;;;;5068169;28;20689;-71
2023/10/26 06:40:13;;;;;;;4.50;2.00;;;;;11.90;95292.00;;;;5066337;28;20685;-72
2023/10/26 06:43:03;;;;;;;10.43;4.60;;;;;12.20;95286.00;;;;5058893;28;20701;-73
2023/10/26 06:45:53;;;;;;;5.93;2.63;;;;;12.00;95285.00;;;;5068860;28;20220;-72
2023/10/26 06:48:42;;;;;;;6.60;2.97;;;;;12.20;95294.00;;;;5058558;28;20226;-73
2023/10/26 06:51:31;;;;;;;10.00;4.30;;;;;12.10;95309.00;;;;5063277;28;20235;-73
2023/10/26 06:54:20;;;;;;;2.53;1.20;;;;;12.30;95307.00;;;;5068829;28;20208;-72
2023/10/26 06:57:09;;;;;;;7.97;3.13;;;;;12.10;95310.00;;;;5065406;28;20207;-72
2023/10/26 06:59:58;;;;;;;2.33;1.07;;;;;12.10;95308.00;;;;5064825;28;20239;-71
2023/10/26 07:02:48;;;;;;;2.93;1.30;;;;;12.20;95314.00;;;;5062672;28;20709;-72
2023/10/26 07:05:38;;;;;;;10.77;4.30;;;;;12.50;95310.00;;;;5064047;28;20223;-73
2023/10/26 07:08:27;;;;;;;12.00;5.07;;;;;12.10;95311.00;;;;5067142;28;20215;-72
2023/10/26 07:11:16;;;;;;;7.00;2.83;;;;;12.10;95303.00;;;;5062888;28;20219;-72
2023/10/26 07:14:05;;;;;;;4.90;2.00;;;;;12.40;95305.00;;;;5062865;28;20673;-71
2023/10/26 07:16:54;;;;;;;5.00;2.30;;;;;12.60;95305.00;;;;5070984;28;20196;-71
2023/10/26 07:19:45;;;;;;;5.30;2.30;;;;;12.60;95302.00;;;;5067770;28;20229;-72
2023/10/26 07:22:34;;;;;;;7.43;3.43;;;;;12.80;95303.00;;;;5073622;28;20203;-72
2023/10/26 07:25:23;;;;;;;8.07;3.33;;;;;13.00;95302.00;;;;5067730;28;20211;-72
2023/10/26 07:28:13;;;;;;;5.40;2.43;;;;;13.30;95304.00;;;;5064289;28;20200;-73
2023/10/26 07:31:02;;;;;;;4.07;1.87;;;;;13.30;95298.00;;;;5066476;28;20216;-72
2023/10/26 07:33:51;;;;;;;1.97;0.97;;;;;13.70;95302.00;;;;5065624;28;20207;-72
2023/10/26 07:36:41;;;;;;;5.47;2.23;;;;;13.80;95292.00;;;;5065827;28;20253;-73
2023/10/26 07:39:33;;;;;;;9.40;3.97;;;;;13.40;95282.00;;;;5065438;28;20223;-72
2023/10/26 07:42:22;;;;;;;4.80;1.93;;;;;13.50;95294.00;;;;5064767;28;20323;-71
2023/10/26 07:45:12;;;;;;;6.30;2.70;;;;;13.50;95291.00;;;;5064856;28;20192;-72
2023/10/26 07:48:01;;;;;;;4.40;2.10;;;;;13.60;95299.00;;;;5066125;28;20288;-72
2023/10/26 07:50:51;;;;;;;6.70;2.63;;;;;13.20;95290.00;;;;5064946;28;20216;-72
2023/10/26 07:53:41;;;;;;;4.10;1.90;;;;;13.50;95295.00;;;;5062476;28;20589;-72
2023/10/26 07:56:31;;;;;;;10.13;4.23;;;;;13.50;95288.00;;;;5065728;28;20208;-72
2023/10/26 07:59:20;;;;;;;7.30;2.77;;;;;13.60;95281.00;;;;5064462;28;20235;-71
2023/10/26 08:02:09;;;;;;;5.40;2.10;;;;;13.90;95272.00;;;;5064038;28;20199;-71
2023/10/26 08:04:58;;;;;;;5.70;2.43;;;;;14.00;95282.00;;;;5064494;28;20200;-73
2023/10/26 08:07:47;;;;;;;6.53;2.67;;;;;14.00;95278.00;;;;5062633;28;20234;-71
2023/10/26 08:10:37;;;;;;;6.63;3.03;;;;;14.50;95275.00;;;;5066533;28;20798;-71
2023/10/26 08:13:26;;;;;;;11.90;4.73;;;;;14.60;95281.00;;;;5057624;28;20680;-72
2023/10/26 08:16:16;;;;;;;8.37;3.37;;;;;15.10;95275.00;;;;5060548;28;20200;-72
2023/10/26 08:19:06;;;;;;;7.23;2.90;;;;;15.20;95271.00;;;;5059627;28;20212;-72
2023/10/26 08:21:55;;;;;;;6.80;2.60;;;;;15.30;95286.00;;;;5060627;28;20208;-73
2023/10/26 08:24:44;;;;;;;7.63;2.80;;;;;15.20;95270.00;;;;5059993;28;20208;-73
2023/10/26 08:27:35;;;;;;;12.10;4.53;;;;;15.20;95280.00;;;;5062990;28;20711;-72
2023/10/26 08:30:24;;;;;;;11.83;4.17;;;;;15.60;95290.00;;;;5064189;28;20224;-72
2023/10/26 08:33:14;;;;;;;10.10;3.83;;;;;16.40;95295.00;;;;5060970;28;20203;-73
2023/10/26 08:36:05;;;;;;;8.67;3.13;;;;;16.60;95288.00;;;;5062411;28;20200;-72
2023/10/26 08:38:54;;;;;;;6.37;2.47;;;;;16.70;95296.00;;;;5062702;28;20207;-72
2023/10/26 08:41:50;;;;;;;7.50;2.73;;;;;16.90;95300.00;;;;5062662;28;20200;-72
2023/10/26 08:44:42;;;;;;;8.00;2.83;;;;;16.80;95291.00;;;;5062914;28;20237;-72
2023/10/26 08:47:31;;;;;;;11.67;4.33;;;;;17.10;95273.00;;;;5058063;28;20223;-72
2023/10/26 08:50:22;;;;;;;6.37;2.47;;;;;17.10;95268.00;;;;5058434;28;20216;-72
2023/10/26 08:53:11;;;;;;;5.93;2.27;;;;;17.20;95283.00;;;;5061429;28;20250;-72
2023/10/26 08:56:00;;;;;;;7.43;2.60;;;;;17.30;95297.00;;;;5057848;28;20590;-72
2023/10/26 08:58:51;;;;;;;7.33;2.73;;;;;17.40;95293.00;;;;5062655;28;20197;-74
2023/10/26 09:01:46;;;;;;;6.53;2.53;;;;;17.50;95297.00;;;;5066008;28;20623;-72
2023/10/26 09:04:35;;;;;;;13.07;4.83;;;;;17.60;95297.00;;;;5064636;28;20257;-74
2023/10/26 09:07:29;;;;;;;11.03;4.07;;;;;17.60;95287.00;;;;5055622;28;20583;-73
2023/10/26 09:10:31;;;;;;;6.70;2.67;;;;;17.70;95293.00;;;;5060626;28;20215;-72
2023/10/26 09:13:25;;;;;;;5.70;2.30;;;;;17.50;95306.00;;;;5064108;28;20218;-72
2023/10/26 09:16:14;;;;;;;6.13;2.40;;;;;17.80;95295.00;;;;5066000;28;20219;-75
2023/10/26 09:19:05;;;;;;;7.37;2.67;;;;;18.00;95306.00;;;;5061029;28;20211;-72
2023/10/26 09:21:55;;;;;;;6.60;2.50;;;;;18.20;95305.00;;;;5066787;28;20204;-72
2023/10/26 09:24:44;;;;;;;3.03;1.30;;;;;18.30;95290.00;;;;5065410;28;20766;-72
2023/10/26 09:27:34;;;;;;;8.70;3.37;;;;;18.30;95275.00;;;;5063713;28;20223;-72
2023/10/26 09:30:28;;;;;;;6.97;2.70;;;;;18.30;95285.00;;;;5064209;28;20219;-73
2023/10/26 09:33:24;;;;;;;6.30;2.40;;;;;18.50;95282.00;;;;5060208;28;20201;-73
2023/10/26 09:36:15;;;;;;;10.43;3.67;;;;;19.20;95274.00;;;;5063791;28;20682;-73
2023/10/26 09:39:08;;;;;;;10.10;3.63;;;;;18.90;95290.00;;;;5063372;28;20105;-72
2023/10/26 09:41:59;;;;;;;6.73;2.50;;;;;18.60;95292.00;;;;5066226;28;20207;-73
2023/10/26 09:44:48;;;;;;;7.00;2.57;;;;;18.40;95290.00;;;;5061255;28;20831;-73
2023/10/26 09:47:38;;;;;;;11.07;4.03;;;;;18.40;95275.00;;;;5069040;28;20307;-72
2023/10/26 09:50:27;;;;;;;16.53;5.80;;;;;18.70;95281.00;;;;5062553;28;20658;-74
2023/10/26 09:53:18;;;;;;;6.90;2.67;;;;;18.60;95285.00;;;;5068292;28;20200;-73
2023/10/26 09:56:12;;;;;;;16.43;5.97;;;;;19.00;95281.00;;;;5065064;28;20717;-73
2023/10/26 09:59:01;;;;;;;7.90;2.80;;;;;19.50;95272.00;;;;5068561;28;20207;-73
2023/10/26 10:01:50;;;;;;;9.20;3.80;;;;;19.60;95272.00;;;;5086766;22;20725;-65
2023/10/26 10:04:39;;;;;;;10.07;4.33;;;;;20.20;95254.00;;;;5064455;28;20685;-64
2023/10/26 10:07:45;;;;;;;12.00;4.57;;;;;20.60;95266.00;;;;5064460;28;20224;-64
2023/10/26 10:10:35;;;;;;;11.90;4.77;;;;;20.50;95267.00;;;;5059750;28;20231;-65
2023/10/26 10:13:40;;;;;;;9.67;3.60;;;;;20.50;95281.00;;;;5044605;28;20200;-64
2023/10/26 10:16:50;;;;;;;15.93;6.07;;;;;19.90;95273.00;;;;5042453;28;20204;-65
2023/10/26 10:19:40;;;;;;;10.33;4.20;;;;;19.20;95268.00;;;;5041087;28;20200;-65
2023/10/26 10:22:47;;;;;;;12.00;4.83;;;;;20.20;95274.00;;;;5047281;28;20206;-65
2023/10/26 10:26:02;;;;;;;6.17;2.43;;;;;20.70;95253.00;;;;5045725;28;20200;-65
2023/10/26 10:29:19;;;;;;;2.13;0.93;;;;;20.60;95249.00;;;;5045167;28;20228;-65
2023/10/26 10:32:08;;;;;;;6.43;2.60;;;;;20.50;95250.00;;;;5043033;28;20692;-65
2023/10/26 10:34:58;;;;;;;6.37;2.70;;;;;20.50;95221.00;;;;5044537;28;20201;-64
2023/10/26 10:38:18;;;;;;;6.77;2.67;;;;;20.90;95218.00;;;;5040168;28;20197;-65
2023/10/26 10:41:18;;;;;;;7.77;3.20;;;;;21.00;95240.00;;;;5041043;28;20220;-65
2023/10/26 10:44:07;;;;;;;8.00;3.20;;;;;21.00;95237.00;;;;5039975;28;20188;-65
2023/10/26 10:46:56;;;;;;;7.57;3.10;;;;;21.10;95233.00;;;;5041002;28;20205;-65
2023/10/26 10:49:45;;;;;;;6.43;2.67;;;;;21.40;95232.00;;;;5044423;28;20197;-65
2023/10/26 10:52:34;;;;;;;14.40;5.90;;;;;22.10;95229.00;;;;5036702;28;20579;-65
2023/10/26 10:55:26;;;;;;;6.70;2.67;;;;;22.80;95223.00;;;;5039585;28;20216;-65
2023/10/26 10:58:16;;;;;;;12.00;4.57;;;;;23.20;95179.00;;;;5039816;28;20204;-64
2023/10/26 11:01:07;;;;;;;8.70;3.50;;;;;23.30;95221.00;;;;5047435;28;20236;-65
2023/10/26 11:04:06;;;;;;;6.90;2.87;;;;;22.30;95233.00;;;;5039862;28;20205;-65
2023/10/26 11:06:55;;;;;;;4.00;1.73;;;;;21.90;95224.00;;;;5045780;28;20196;-65
2023/10/26 11:09:46;;;;;;;6.80;2.80;;;;;22.30;95214.00;;;;5041250;28;20597;-65
2023/10/26 11:12:35;;;;;;;64.43;60.83;;;;;21.90;95188.00;;;;5040486;28;20382;-66
2023/10/26 11:15:33;;;;;;;9.27;4.10;;;;;22.20;95175.00;;;;5041070;28;20615;-66
2023/10/26 11:18:23;;;;;;;12.00;4.70;;;;;22.80;95167.00;;;;5045982;28;20204;-66
2023/10/26 11:21:17;;;;;;;13.87;5.33;;;;;23.10;95180.00;;;;5036067;28;20220;-65
2023/10/26 11:24:07;;;;;;;6.90;2.80;;;;;22.60;95194.00;;;;5040403;28;20208;-65
2023/10/26 11:27:07;;;;;;;7.07;3.00;;;;;22.80;95187.00;;;;5045214;28;20211;-65
2023/10/26 11:30:04;;;;;;;10.47;4.10;;;;;22.70;95180.00;;;;5043456;28;20208;-65
2023/10/26 11:32:55;;;;;;;9.47;3.70;;;;;23.20;95190.00;;;;5046058;28;20208;-65
2023/10/26 11:35:44;;;;;;;6.40;2.70;;;;;22.70;95209.00;;;;5042721;28;20193;-65
2023/10/26 11:38:33;;;;;;;8.13;3.43;;;;;22.90;95209.00;;;;5043785;28;20823;-66
2023/10/26 11:41:23;;;;;;;4.93;2.13;;;;;22.80;95216.00;;;;5045032;28;20216;-65
2023/10/26 11:44:25;;;;;;;5.67;2.33;;;;;22.90;95198.00;;;;5042903;28;20204;-66
2023/10/26 11:47:14;;;;;;;5.97;2.40;;;;;22.90;95192.00;;;;5047128;28;20200;-66
2023/10/26 11:50:05;;;;;;;7.50;3.13;;;;;22.80;95203.00;;;;5045440;28;20225;-65
2023/10/26 11:52:55;;;;;;;7.30;2.77;;;;;22.10;95218.00;;;;5047446;28;20202;-65
2023/10/26 11:55:44;;;;;;;7.80;3.07;;;;;22.20;95207.00;;;;5043366;28;20205;-65
2023/10/26 11:58:35;;;;;;;18.20;6.97;;;;;21.80;95206.00;;;;5034283;28;20200;-64
2023/10/26 12:01:24;;;;;;;6.53;2.60;;;;;21.90;95209.00;;;;5039022;28;20236;-65
2023/10/26 12:04:13;;;;;;;7.03;2.77;;;;;21.90;95212.00;;;;5032204;28;20200;-64
2023/10/26 12:07:05;;;;;;;7.60;3.03;;;;;21.80;95218.00;;;;5036789;28;20200;-65
2023/10/26 12:09:54;;;;;;;7.27;2.97;;;;;21.70;95210.00;;;;5039487;28;20697;-65
2023/10/26 12:12:43;;;;;;;8.07;3.23;;;;;21.30;95206.00;;;;5040185;28;20204;-65
2023/10/26 12:15:33;;;;;;;13.97;5.40;;;;;21.30;95191.00;;;;5037427;28;20215;-65
2023/10/26 12:18:22;;;;;;;13.20;5.00;;;;;21.10;95184.00;;;;5037057;28;20201;-66
2023/10/26 12:21:11;;;;;;;7.93;3.23;;;;;21.00;95190.00;;;;5040660;28;20212;-64
2023/10/26 12:24:01;;;;;;;7.20;2.97;;;;;21.30;95195.00;;;;5039569;28;20200;-65
2023/10/26 12:26:55;;;;;;;7.13;2.83;;;;;21.30;95201.00;;;;5038781;28;20207;-65
2023/10/26 12:29:44;;;;;;;6.17;2.50;;;;;21.10;95193.00;;;;5038475;28;20831;-66
2023/10/26 12:32:34;;;;;;;12.87;5.00;;;;;21.10;95198.00;;;;5040410;28;20209;-65
2023/10/26 12:35:24;;;;;;;7.37;2.90;;;;;21.00;95193.00;;;;5039515;28;20208;-65
2023/10/26 12:38:13;;;;;;;6.90;2.90;;;;;21.00;95189.00;;;;5036975;28;20205;-65
2023/10/26 12:41:04;;;;;;;7.93;3.23;;;;;20.90;95201.00;;;;5039916;28;20920;-65
2023/10/26 12:43:53;;;;;;;6.70;2.70;;;;;20.80;95198.00;;;;5035589;28;20212;-65
2023/10/26 12:46:42;;;;;;;13.53;5.37;;;;;20.70;95198.00;;;;5034504;28;20213;-65
2023/10/26 12:49:31;;;;;;;12.07;4.93;;;;;20.70;95195.00;;;;5038534;28;20235;-64
2023/10/26 12:52:20;;;;;;;4.43;1.93;;;;;20.60;95209.00;;;;5042108;28;20576;-64
2023/10/26 12:55:09;;;;;;;6.90;2.77;;;;;20.60;95214.00;;;;5039044;28;20205;-65
2023/10/26 12:57:59;;;;;;;6.93;2.80;;;;;20.50;95218.00;;;;5038181;28;20593;-65
2023/10/26 13:00:49;;;;;;;10.17;4.13;;;;;20.40;95215.00;;;;5032913;28;20243;-65
2023/10/26 13:03:38;;;;;;;11.43;4.60;;;;;20.40;95232.00;;;;5035357;28;20224;-66
2023/10/26 13:06:27;;;;;;;11.27;4.43;;;;;20.40;95219.00;;;;5036962;28;20693;-65
2023/10/26 13:09:16;;;;;;;6.77;2.73;;;;;20.30;95230.00;;;;5040196;28;20216;-65
2023/10/26 13:12:05;;;;;;;7.03;3.00;;;;;20.30;95231.00;;;;5040208;28;20243;-65
2023/10/26 13:14:56;;;;;;;6.27;2.63;;;;;20.30;95230.00;;;;5040906;28;20201;-65
2023/10/26 13:17:45;;;;;;;6.03;2.47;;;;;20.40;95213.00;;;;5038323;28;21269;-65
2023/10/26 13:20:34;;;;;;;14.70;6.07;;;;;20.30;95215.00;;;;5036527;28;20237;-64
2023/10/26 13:23:23;;;;;;;5.93;2.47;;;;;20.20;95205.00;;;;5036598;28;20222;-65
2023/10/26 13:26:12;;;;;;;9.60;3.87;;;;;20.20;95185.00;;;;5041210;28;20585;-65
2023/10/26 13:29:01;;;;;;;4.90;2.20;;;;;20.10;95178.00;;;;5041799;28;20228;-65
2023/10/26 13:31:51;;;;;;;5.60;2.40;;;;;20.00;95188.00;;;;5043635;28;20727;-65
2023/10/26 13:34:40;;;;;;;10.90;4.40;;;;;19.80;95192.00;;;;5039857;28;20197;-65
2023/10/26 13:37:29;;;;;;;10.93;4.50;;;;;19.80;95171.00;;;;5045822;28;20215;-67
2023/10/26 13:40:18;;;;;;;6.23;2.60;;;;;19.90;95158.00;;;;5039499;28;20220;-66
2023/10/26 13:43:08;;;;;;;9.23;3.60;;;;;20.00;95166.00;;;;5043726;28;20239;-65
2023/10/26 13:45:57;;;;;;;10.13;4.13;;;;;20.00;95160.00;;;;5042485;28;20201;-65
2023/10/26 13:48:48;;;;;;;8.80;3.47;;;;;20.50;95159.00;;;;5046856;28;20229;-65
2023/10/26 13:51:37;;;;;;;9.47;3.97;;;;;20.40;95162.00;;;;5043274;28;20232;-65
2023/10/26 13:54:26;;;;;;;6.30;2.47;;;;;20.50;95164.00;;;;5041556;28;20989;-65
2023/10/26 13:57:15;;;;;;;7.43;3.00;;;;;21.00;95149.00;;;;5047187;28;20205;-65
2023/10/26 14:00:08;;;;;;;7.50;2.87;;;;;21.20;95156.00;;;;5039763;28;20228;-65
2023/10/26 14:02:57;;;;;;;3.80;1.60;;;;;21.10;95165.00;;;;5042761;28;20710;-64
2023/10/26 14:05:54;;;;;;;4.33;1.80;;;;;20.30;95163.00;;;;5047324;28;20619;-65
2023/10/26 14:08:46;;;;;;;6.20;2.57;;;;;20.10;95164.00;;;;5047891;28;20206;-65
2023/10/26 14:11:35;;;;;;;13.90;5.53;;;;;19.50;95156.00;;;;5045219;28;20713;-65